sensor_id;sensor_type;location;lat;lon;timestamp;P1;durP1;ratioP1;P2;durP2;ratioP2
51854;SDS011;37895;53.240;6.572;2023-07-31T00:00:47;4.70;;;4.28;;
51854;SDS011;37895;53.240;6.572;2023-07-31T00:03:12;7.50;;;4.50;;
51854;SDS011;37895;53.240;6.572;2023-07-31T00:05:38;6.50;;;4.78;;
51854;SDS011;37895;53.240;6.572;2023-07-31T00:08:04;5.75;;;4.72;;
51854;SDS011;37895;53.240;6.572;2023-07-31T00:10:29;5.47;;;4.90;;
51854;SDS011;37895;53.240;6.572;2023-07-31T00:12:55;5.18;;;4.63;;
51854;SDS011;37895;53.240;6.572;2023-07-31T00:15:20;6.50;;;5.78;;
51854;SDS011;37895;53.240;6.572;2023-07-31T00:17:46;9.60;;;6.50;;
51854;SDS011;37895;53.240;6.572;2023-07-31T00:22:38;9.45;;;5.65;;
51854;SDS011;37895;53.240;6.572;2023-07-31T00:25:03;6.38;;;5.70;;
51854;SDS011;37895;53.240;6.572;2023-07-31T00:27:31;6.32;;;5.63;;
51854;SDS011;37895;53.240;6.572;2023-07-31T00:29:57;6.72;;;5.70;;
51854;SDS011;37895;53.240;6.572;2023-07-31T00:32:22;7.00;;;5.78;;
51854;SDS011;37895;53.240;6.572;2023-07-31T00:34:48;5.65;;;5.03;;
51854;SDS011;37895;53.240;6.572;2023-07-31T00:37:14;4.90;;;4.30;;
51854;SDS011;37895;53.240;6.572;2023-07-31T00:42:06;5.95;;;4.03;;
51854;SDS011;37895;53.240;6.572;2023-07-31T00:44:32;4.78;;;4.30;;
51854;SDS011;37895;53.240;6.572;2023-07-31T00:49:24;6.25;;;5.45;;
51854;SDS011;37895;53.240;6.572;2023-07-31T00:51:50;7.25;;;5.65;;
51854;SDS011;37895;53.240;6.572;2023-07-31T00:54:16;6.20;;;4.50;;
51854;SDS011;37895;53.240;6.572;2023-07-31T00:56:42;4.78;;;4.38;;
51854;SDS011;37895;53.240;6.572;2023-07-31T00:59:10;5.13;;;4.25;;
51854;SDS011;37895;53.240;6.572;2023-07-31T01:01:36;4.28;;;3.88;;
51854;SDS011;37895;53.240;6.572;2023-07-31T01:04:03;6.20;;;4.88;;
51854;SDS011;37895;53.240;6.572;2023-07-31T01:06:37;5.60;;;4.50;;
51854;SDS011;37895;53.240;6.572;2023-07-31T01:09:19;7.38;;;4.65;;
51854;SDS011;37895;53.240;6.572;2023-07-31T01:12:03;4.35;;;3.95;;
51854;SDS011;37895;53.240;6.572;2023-07-31T01:14:31;4.80;;;4.40;;
51854;SDS011;37895;53.240;6.572;2023-07-31T01:16:57;5.40;;;3.90;;
51854;SDS011;37895;53.240;6.572;2023-07-31T01:19:23;4.88;;;4.13;;
51854;SDS011;37895;53.240;6.572;2023-07-31T01:27:23;4.13;;;3.60;;
51854;SDS011;37895;53.240;6.572;2023-07-31T01:30:03;3.25;;;2.95;;
51854;SDS011;37895;53.240;6.572;2023-07-31T01:32:39;6.00;;;2.90;;
51854;SDS011;37895;53.240;6.572;2023-07-31T01:35:07;3.20;;;2.78;;
51854;SDS011;37895;53.240;6.572;2023-07-31T01:37:33;3.38;;;3.08;;
51854;SDS011;37895;53.240;6.572;2023-07-31T01:39:59;4.35;;;3.20;;
51854;SDS011;37895;53.240;6.572;2023-07-31T01:42:25;4.80;;;3.50;;
51854;SDS011;37895;53.240;6.572;2023-07-31T01:44:50;4.55;;;3.90;;
51854;SDS011;37895;53.240;6.572;2023-07-31T01:47:16;4.82;;;4.10;;
51854;SDS011;37895;53.240;6.572;2023-07-31T01:49:41;4.30;;;3.90;;
51854;SDS011;37895;53.240;6.572;2023-07-31T01:52:07;4.68;;;4.05;;
51854;SDS011;37895;53.240;6.572;2023-07-31T01:54:33;5.88;;;4.57;;
51854;SDS011;37895;53.240;6.572;2023-07-31T01:56:59;4.90;;;4.40;;
51854;SDS011;37895;53.240;6.572;2023-07-31T01:59:24;4.10;;;3.70;;
51854;SDS011;37895;53.240;6.572;2023-07-31T02:01:50;6.03;;;4.38;;
51854;SDS011;37895;53.240;6.572;2023-07-31T02:04:15;5.05;;;3.70;;
51854;SDS011;37895;53.240;6.572;2023-07-31T02:06:41;4.70;;;4.10;;
51854;SDS011;37895;53.240;6.572;2023-07-31T02:09:07;3.67;;;3.33;;
51854;SDS011;37895;53.240;6.572;2023-07-31T02:11:32;5.35;;;3.58;;
51854;SDS011;37895;53.240;6.572;2023-07-31T02:13:58;5.53;;;3.75;;
51854;SDS011;37895;53.240;6.572;2023-07-31T02:16:23;4.32;;;3.10;;
51854;SDS011;37895;53.240;6.572;2023-07-31T02:18:49;3.92;;;3.20;;
51854;SDS011;37895;53.240;6.572;2023-07-31T02:21:14;3.38;;;3.08;;
51854;SDS011;37895;53.240;6.572;2023-07-31T02:23:40;2.92;;;2.67;;
51854;SDS011;37895;53.240;6.572;2023-07-31T02:26:06;3.22;;;2.70;;
51854;SDS011;37895;53.240;6.572;2023-07-31T02:28:31;3.42;;;2.80;;
51854;SDS011;37895;53.240;6.572;2023-07-31T02:30:57;3.42;;;3.13;;
51854;SDS011;37895;53.240;6.572;2023-07-31T02:33:23;4.03;;;3.05;;
51854;SDS011;37895;53.240;6.572;2023-07-31T02:35:48;3.45;;;2.80;;
51854;SDS011;37895;53.240;6.572;2023-07-31T02:38:14;2.88;;;2.53;;
51854;SDS011;37895;53.240;6.572;2023-07-31T02:40:40;4.13;;;2.50;;
51854;SDS011;37895;53.240;6.572;2023-07-31T02:43:08;3.67;;;2.70;;
51854;SDS011;37895;53.240;6.572;2023-07-31T02:45:34;3.42;;;2.58;;
51854;SDS011;37895;53.240;6.572;2023-07-31T02:48:00;3.58;;;2.67;;
51854;SDS011;37895;53.240;6.572;2023-07-31T02:50:25;3.28;;;2.88;;
51854;SDS011;37895;53.240;6.572;2023-07-31T02:52:52;3.88;;;2.70;;
51854;SDS011;37895;53.240;6.572;2023-07-31T02:55:18;2.55;;;2.35;;
51854;SDS011;37895;53.240;6.572;2023-07-31T02:57:44;3.28;;;2.97;;
51854;SDS011;37895;53.240;6.572;2023-07-31T03:00:09;2.58;;;2.20;;
51854;SDS011;37895;53.240;6.572;2023-07-31T03:02:35;5.57;;;2.60;;
51854;SDS011;37895;53.240;6.572;2023-07-31T03:05:01;3.28;;;2.47;;
51854;SDS011;37895;53.240;6.572;2023-07-31T03:07:26;3.50;;;2.40;;
51854;SDS011;37895;53.240;6.572;2023-07-31T03:09:53;4.88;;;2.50;;
51854;SDS011;37895;53.240;6.572;2023-07-31T03:12:19;4.00;;;2.45;;
51854;SDS011;37895;53.240;6.572;2023-07-31T03:14:44;3.33;;;2.55;;
51854;SDS011;37895;53.240;6.572;2023-07-31T03:17:10;3.42;;;2.42;;
51854;SDS011;37895;53.240;6.572;2023-07-31T03:19:36;2.60;;;2.40;;
51854;SDS011;37895;53.240;6.572;2023-07-31T03:22:02;3.88;;;2.60;;
51854;SDS011;37895;53.240;6.572;2023-07-31T03:24:28;2.58;;;2.38;;
51854;SDS011;37895;53.240;6.572;2023-07-31T03:29:20;2.95;;;2.38;;
51854;SDS011;37895;53.240;6.572;2023-07-31T03:31:45;3.22;;;1.80;;
51854;SDS011;37895;53.240;6.572;2023-07-31T03:34:11;5.75;;;2.22;;
51854;SDS011;37895;53.240;6.572;2023-07-31T03:36:36;4.45;;;1.75;;
51854;SDS011;37895;53.240;6.572;2023-07-31T03:39:02;2.30;;;2.08;;
51854;SDS011;37895;53.240;6.572;2023-07-31T03:41:28;3.95;;;1.90;;
51854;SDS011;37895;53.240;6.572;2023-07-31T03:43:54;3.47;;;2.10;;
51854;SDS011;37895;53.240;6.572;2023-07-31T03:46:22;3.83;;;1.80;;
51854;SDS011;37895;53.240;6.572;2023-07-31T03:48:49;1.88;;;1.67;;
51854;SDS011;37895;53.240;6.572;2023-07-31T03:51:15;4.13;;;1.90;;
51854;SDS011;37895;53.240;6.572;2023-07-31T03:53:41;2.75;;;1.80;;
51854;SDS011;37895;53.240;6.572;2023-07-31T03:56:08;2.20;;;1.70;;
51854;SDS011;37895;53.240;6.572;2023-07-31T03:58:33;2.17;;;1.80;;
51854;SDS011;37895;53.240;6.572;2023-07-31T04:01:00;3.15;;;1.80;;
51854;SDS011;37895;53.240;6.572;2023-07-31T04:03:26;2.53;;;1.80;;
51854;SDS011;37895;53.240;6.572;2023-07-31T04:05:53;4.15;;;1.90;;
51854;SDS011;37895;53.240;6.572;2023-07-31T04:08:21;4.35;;;1.80;;
51854;SDS011;37895;53.240;6.572;2023-07-31T04:10:47;2.90;;;2.13;;
51854;SDS011;37895;53.240;6.572;2023-07-31T04:13:12;2.63;;;1.90;;
51854;SDS011;37895;53.240;6.572;2023-07-31T04:15:38;3.45;;;1.83;;
51854;SDS011;37895;53.240;6.572;2023-07-31T04:18:04;3.35;;;1.83;;
51854;SDS011;37895;53.240;6.572;2023-07-31T04:20:30;2.85;;;2.10;;
51854;SDS011;37895;53.240;6.572;2023-07-31T04:22:56;2.70;;;1.60;;
51854;SDS011;37895;53.240;6.572;2023-07-31T04:25:22;3.40;;;1.60;;
51854;SDS011;37895;53.240;6.572;2023-07-31T04:27:47;2.75;;;1.67;;
51854;SDS011;37895;53.240;6.572;2023-07-31T04:30:13;3.05;;;1.58;;
51854;SDS011;37895;53.240;6.572;2023-07-31T04:32:39;2.67;;;1.83;;
51854;SDS011;37895;53.240;6.572;2023-07-31T04:35:05;3.03;;;1.73;;
51854;SDS011;37895;53.240;6.572;2023-07-31T04:37:30;4.18;;;1.75;;
51854;SDS011;37895;53.240;6.572;2023-07-31T04:39:56;3.17;;;1.63;;
51854;SDS011;37895;53.240;6.572;2023-07-31T04:42:22;2.92;;;1.75;;
51854;SDS011;37895;53.240;6.572;2023-07-31T04:44:48;2.78;;;1.30;;
51854;SDS011;37895;53.240;6.572;2023-07-31T04:47:13;2.55;;;1.60;;
51854;SDS011;37895;53.240;6.572;2023-07-31T04:49:39;2.35;;;1.50;;
51854;SDS011;37895;53.240;6.572;2023-07-31T04:52:05;1.88;;;1.50;;
51854;SDS011;37895;53.240;6.572;2023-07-31T04:54:30;3.35;;;1.80;;
51854;SDS011;37895;53.240;6.572;2023-07-31T04:56:56;2.10;;;1.50;;
51854;SDS011;37895;53.240;6.572;2023-07-31T04:59:22;1.83;;;1.45;;
51854;SDS011;37895;53.240;6.572;2023-07-31T05:01:47;1.55;;;1.40;;
51854;SDS011;37895;53.240;6.572;2023-07-31T05:04:13;1.50;;;1.40;;
51854;SDS011;37895;53.240;6.572;2023-07-31T05:09:05;2.42;;;1.48;;
51854;SDS011;37895;53.240;6.572;2023-07-31T05:11:31;1.30;;;1.20;;
51854;SDS011;37895;53.240;6.572;2023-07-31T05:13:56;1.98;;;1.40;;
51854;SDS011;37895;53.240;6.572;2023-07-31T05:16:22;2.10;;;1.40;;
51854;SDS011;37895;53.240;6.572;2023-07-31T05:18:48;3.42;;;1.60;;
51854;SDS011;37895;53.240;6.572;2023-07-31T05:21:14;4.18;;;1.50;;
51854;SDS011;37895;53.240;6.572;2023-07-31T05:23:39;1.40;;;1.30;;
51854;SDS011;37895;53.240;6.572;2023-07-31T05:26:05;1.65;;;1.45;;
51854;SDS011;37895;53.240;6.572;2023-07-31T05:28:31;1.77;;;1.40;;
51854;SDS011;37895;53.240;6.572;2023-07-31T05:31:01;1.65;;;1.30;;
51854;SDS011;37895;53.240;6.572;2023-07-31T05:33:28;1.52;;;1.20;;
51854;SDS011;37895;53.240;6.572;2023-07-31T05:35:54;1.92;;;1.17;;
51854;SDS011;37895;53.240;6.572;2023-07-31T05:38:20;1.30;;;1.20;;
51854;SDS011;37895;53.240;6.572;2023-07-31T05:40:46;0.98;;;0.90;;
51854;SDS011;37895;53.240;6.572;2023-07-31T05:43:12;1.08;;;1.00;;
51854;SDS011;37895;53.240;6.572;2023-07-31T05:45:44;2.45;;;1.02;;
51854;SDS011;37895;53.240;6.572;2023-07-31T05:48:09;1.05;;;0.95;;
51854;SDS011;37895;53.240;6.572;2023-07-31T05:50:35;1.45;;;1.30;;
51854;SDS011;37895;53.240;6.572;2023-07-31T05:53:04;2.85;;;1.25;;
51854;SDS011;37895;53.240;6.572;2023-07-31T05:55:29;1.90;;;1.30;;
51854;SDS011;37895;53.240;6.572;2023-07-31T05:57:55;2.05;;;1.42;;
51854;SDS011;37895;53.240;6.572;2023-07-31T06:00:21;2.97;;;1.58;;
51854;SDS011;37895;53.240;6.572;2023-07-31T06:05:13;1.98;;;1.38;;
51854;SDS011;37895;53.240;6.572;2023-07-31T06:07:38;1.77;;;1.40;;
51854;SDS011;37895;53.240;6.572;2023-07-31T06:10:04;2.85;;;1.50;;
51854;SDS011;37895;53.240;6.572;2023-07-31T06:12:34;1.77;;;1.55;;
51854;SDS011;37895;53.240;6.572;2023-07-31T06:15:00;2.90;;;1.88;;
51854;SDS011;37895;53.240;6.572;2023-07-31T06:17:27;2.65;;;1.60;;
51854;SDS011;37895;53.240;6.572;2023-07-31T06:19:52;2.75;;;1.90;;
51854;SDS011;37895;53.240;6.572;2023-07-31T06:22:18;2.33;;;1.80;;
51854;SDS011;37895;53.240;6.572;2023-07-31T06:24:44;2.75;;;1.98;;
51854;SDS011;37895;53.240;6.572;2023-07-31T06:27:10;2.55;;;1.98;;
51854;SDS011;37895;53.240;6.572;2023-07-31T06:32:01;3.90;;;2.83;;
51854;SDS011;37895;53.240;6.572;2023-07-31T06:34:27;4.18;;;2.55;;
51854;SDS011;37895;53.240;6.572;2023-07-31T06:36:53;7.05;;;3.50;;
51854;SDS011;37895;53.240;6.572;2023-07-31T06:39:18;7.45;;;3.97;;
51854;SDS011;37895;53.240;6.572;2023-07-31T06:41:44;9.40;;;4.30;;
51854;SDS011;37895;53.240;6.572;2023-07-31T06:44:10;7.88;;;4.63;;
51854;SDS011;37895;53.240;6.572;2023-07-31T06:46:36;15.35;;;6.07;;
51854;SDS011;37895;53.240;6.572;2023-07-31T06:49:01;14.15;;;5.97;;
51854;SDS011;37895;53.240;6.572;2023-07-31T06:51:27;14.65;;;6.82;;
51854;SDS011;37895;53.240;6.572;2023-07-31T06:53:53;13.35;;;6.45;;
51854;SDS011;37895;53.240;6.572;2023-07-31T06:56:18;14.80;;;6.53;;
51854;SDS011;37895;53.240;6.572;2023-07-31T06:58:45;13.90;;;6.70;;
51854;SDS011;37895;53.240;6.572;2023-07-31T07:01:11;21.60;;;7.57;;
51854;SDS011;37895;53.240;6.572;2023-07-31T07:03:36;19.40;;;7.00;;
51854;SDS011;37895;53.240;6.572;2023-07-31T07:06:02;15.00;;;7.25;;
51854;SDS011;37895;53.240;6.572;2023-07-31T07:08:28;18.17;;;7.70;;
51854;SDS011;37895;53.240;6.572;2023-07-31T07:10:53;20.75;;;8.55;;
51854;SDS011;37895;53.240;6.572;2023-07-31T07:13:19;19.63;;;7.43;;
51854;SDS011;37895;53.240;6.572;2023-07-31T07:15:48;20.17;;;7.50;;
51854;SDS011;37895;53.240;6.572;2023-07-31T07:18:14;20.63;;;7.55;;
51854;SDS011;37895;53.240;6.572;2023-07-31T07:20:40;17.65;;;7.15;;
51854;SDS011;37895;53.240;6.572;2023-07-31T07:23:11;21.83;;;7.63;;
51854;SDS011;37895;53.240;6.572;2023-07-31T07:25:37;21.13;;;7.30;;
51854;SDS011;37895;53.240;6.572;2023-07-31T07:28:03;15.60;;;6.28;;
51854;SDS011;37895;53.240;6.572;2023-07-31T07:30:29;15.38;;;6.97;;
51854;SDS011;37895;53.240;6.572;2023-07-31T07:32:54;17.40;;;6.63;;
51854;SDS011;37895;53.240;6.572;2023-07-31T07:35:20;17.83;;;6.07;;
51854;SDS011;37895;53.240;6.572;2023-07-31T07:37:48;15.60;;;6.25;;
51854;SDS011;37895;53.240;6.572;2023-07-31T07:40:15;11.70;;;5.57;;
51854;SDS011;37895;53.240;6.572;2023-07-31T07:42:41;15.43;;;6.30;;
51854;SDS011;37895;53.240;6.572;2023-07-31T07:45:06;18.45;;;6.45;;
51854;SDS011;37895;53.240;6.572;2023-07-31T07:47:33;19.15;;;6.28;;
51854;SDS011;37895;53.240;6.572;2023-07-31T07:49:58;13.38;;;6.10;;
51854;SDS011;37895;53.240;6.572;2023-07-31T07:52:24;14.93;;;6.85;;
51854;SDS011;37895;53.240;6.572;2023-07-31T07:54:49;9.85;;;5.72;;
51854;SDS011;37895;53.240;6.572;2023-07-31T07:57:16;16.58;;;6.72;;
51854;SDS011;37895;53.240;6.572;2023-07-31T07:59:41;15.20;;;6.78;;
51854;SDS011;37895;53.240;6.572;2023-07-31T08:02:07;8.90;;;5.25;;
51854;SDS011;37895;53.240;6.572;2023-07-31T08:04:33;5.47;;;3.28;;
51854;SDS011;37895;53.240;6.572;2023-07-31T08:06:58;4.80;;;2.58;;
51854;SDS011;37895;53.240;6.572;2023-07-31T08:09:24;3.47;;;2.30;;
51854;SDS011;37895;53.240;6.572;2023-07-31T08:11:50;3.03;;;1.90;;
51854;SDS011;37895;53.240;6.572;2023-07-31T08:14:15;3.17;;;1.52;;
51854;SDS011;37895;53.240;6.572;2023-07-31T08:16:41;3.35;;;1.80;;
51854;SDS011;37895;53.240;6.572;2023-07-31T08:19:06;3.00;;;1.80;;
51854;SDS011;37895;53.240;6.572;2023-07-31T08:21:32;2.10;;;1.60;;
51854;SDS011;37895;53.240;6.572;2023-07-31T08:23:58;2.50;;;1.52;;
51854;SDS011;37895;53.240;6.572;2023-07-31T08:26:23;2.38;;;1.60;;
51854;SDS011;37895;53.240;6.572;2023-07-31T08:28:49;5.72;;;1.65;;
51854;SDS011;37895;53.240;6.572;2023-07-31T08:31:14;1.40;;;1.30;;
51854;SDS011;37895;53.240;6.572;2023-07-31T08:33:40;1.73;;;1.50;;
51854;SDS011;37895;53.240;6.572;2023-07-31T08:36:06;2.00;;;1.40;;
51854;SDS011;37895;53.240;6.572;2023-07-31T08:38:32;1.67;;;1.40;;
51854;SDS011;37895;53.240;6.572;2023-07-31T08:40:58;2.97;;;1.45;;
51854;SDS011;37895;53.240;6.572;2023-07-31T08:43:25;1.50;;;1.40;;
51854;SDS011;37895;53.240;6.572;2023-07-31T08:45:51;2.13;;;1.58;;
51854;SDS011;37895;53.240;6.572;2023-07-31T08:48:17;1.65;;;1.55;;
51854;SDS011;37895;53.240;6.572;2023-07-31T08:50:44;2.03;;;1.20;;
51854;SDS011;37895;53.240;6.572;2023-07-31T08:55:35;1.38;;;1.27;;
51854;SDS011;37895;53.240;6.572;2023-07-31T08:58:03;1.38;;;1.20;;
51854;SDS011;37895;53.240;6.572;2023-07-31T09:00:30;1.52;;;1.33;;
51854;SDS011;37895;53.240;6.572;2023-07-31T09:03:06;2.72;;;1.20;;
51854;SDS011;37895;53.240;6.572;2023-07-31T09:05:35;1.50;;;1.23;;
51854;SDS011;37895;53.240;6.572;2023-07-31T09:08:02;3.15;;;1.30;;
51854;SDS011;37895;53.240;6.572;2023-07-31T09:10:29;1.95;;;1.35;;
51854;SDS011;37895;53.240;6.572;2023-07-31T09:12:55;1.20;;;1.10;;
51854;SDS011;37895;53.240;6.572;2023-07-31T09:15:21;1.25;;;1.15;;
51854;SDS011;37895;53.240;6.572;2023-07-31T09:17:48;2.33;;;1.30;;
51854;SDS011;37895;53.240;6.572;2023-07-31T09:20:26;2.45;;;1.23;;
51854;SDS011;37895;53.240;6.572;2023-07-31T09:22:52;1.42;;;1.30;;
51854;SDS011;37895;53.240;6.572;2023-07-31T09:27:48;1.80;;;1.10;;
51854;SDS011;37895;53.240;6.572;2023-07-31T09:30:14;0.88;;;0.88;;
51854;SDS011;37895;53.240;6.572;2023-07-31T09:32:40;1.50;;;1.10;;
51854;SDS011;37895;53.240;6.572;2023-07-31T09:37:48;2.75;;;1.40;;
51854;SDS011;37895;53.240;6.572;2023-07-31T09:40:24;1.50;;;1.20;;
51854;SDS011;37895;53.240;6.572;2023-07-31T09:42:55;1.10;;;0.90;;
51854;SDS011;37895;53.240;6.572;2023-07-31T09:45:23;1.48;;;1.10;;
51854;SDS011;37895;53.240;6.572;2023-07-31T09:47:49;1.10;;;0.90;;
51854;SDS011;37895;53.240;6.572;2023-07-31T09:50:15;1.15;;;1.08;;
51854;SDS011;37895;53.240;6.572;2023-07-31T09:52:41;2.47;;;1.08;;
51854;SDS011;37895;53.240;6.572;2023-07-31T09:55:07;1.17;;;0.90;;
51854;SDS011;37895;53.240;6.572;2023-07-31T09:57:36;0.85;;;0.80;;
51854;SDS011;37895;53.240;6.572;2023-07-31T10:00:06;0.80;;;0.80;;
51854;SDS011;37895;53.240;6.572;2023-07-31T10:02:34;0.70;;;0.70;;
51854;SDS011;37895;53.240;6.572;2023-07-31T10:05:01;0.95;;;0.77;;
51854;SDS011;37895;53.240;6.572;2023-07-31T10:07:28;1.10;;;0.77;;
51854;SDS011;37895;53.240;6.572;2023-07-31T10:09:57;0.60;;;0.60;;
51854;SDS011;37895;53.240;6.572;2023-07-31T10:12:28;0.82;;;0.65;;
51854;SDS011;37895;53.240;6.572;2023-07-31T10:14:54;1.98;;;0.63;;
51854;SDS011;37895;53.240;6.572;2023-07-31T10:17:21;0.60;;;0.50;;
51854;SDS011;37895;53.240;6.572;2023-07-31T10:19:49;1.33;;;0.63;;
51854;SDS011;37895;53.240;6.572;2023-07-31T10:22:15;1.85;;;0.60;;
51854;SDS011;37895;53.240;6.572;2023-07-31T10:24:44;0.85;;;0.70;;
51854;SDS011;37895;53.240;6.572;2023-07-31T10:27:11;1.13;;;0.60;;
51854;SDS011;37895;53.240;6.572;2023-07-31T10:29:37;0.82;;;0.50;;
51854;SDS011;37895;53.240;6.572;2023-07-31T10:32:04;0.60;;;0.60;;
51854;SDS011;37895;53.240;6.572;2023-07-31T10:34:33;2.13;;;0.50;;
51854;SDS011;37895;53.240;6.572;2023-07-31T10:37:19;0.55;;;0.55;;
51854;SDS011;37895;53.240;6.572;2023-07-31T10:39:57;0.60;;;0.40;;
51854;SDS011;37895;53.240;6.572;2023-07-31T10:42:31;1.08;;;0.50;;
51854;SDS011;37895;53.240;6.572;2023-07-31T10:45:00;2.85;;;0.77;;
51854;SDS011;37895;53.240;6.572;2023-07-31T10:47:27;0.63;;;0.63;;
51854;SDS011;37895;53.240;6.572;2023-07-31T10:50:12;0.70;;;0.60;;
51854;SDS011;37895;53.240;6.572;2023-07-31T10:52:37;1.42;;;0.70;;
51854;SDS011;37895;53.240;6.572;2023-07-31T10:57:51;0.52;;;0.50;;
51854;SDS011;37895;53.240;6.572;2023-07-31T11:00:18;1.67;;;0.68;;
51854;SDS011;37895;53.240;6.572;2023-07-31T11:02:55;1.65;;;0.90;;
51854;SDS011;37895;53.240;6.572;2023-07-31T11:13:31;2.10;;;1.02;;
51854;SDS011;37895;53.240;6.572;2023-07-31T11:16:08;1.23;;;1.08;;
51854;SDS011;37895;53.240;6.572;2023-07-31T11:18:34;3.70;;;1.48;;
51854;SDS011;37895;53.240;6.572;2023-07-31T11:21:00;1.50;;;1.23;;
51854;SDS011;37895;53.240;6.572;2023-07-31T11:25:51;2.15;;;1.02;;
51854;SDS011;37895;53.240;6.572;2023-07-31T11:28:18;1.20;;;0.90;;
51854;SDS011;37895;53.240;6.572;2023-07-31T11:30:44;3.65;;;0.80;;
51854;SDS011;37895;53.240;6.572;2023-07-31T11:33:12;1.95;;;0.90;;
51854;SDS011;37895;53.240;6.572;2023-07-31T11:35:42;1.42;;;0.90;;
51854;SDS011;37895;53.240;6.572;2023-07-31T11:38:26;2.58;;;1.20;;
51854;SDS011;37895;53.240;6.572;2023-07-31T11:40:54;2.35;;;1.10;;
51854;SDS011;37895;53.240;6.572;2023-07-31T11:43:21;0.90;;;0.90;;
51854;SDS011;37895;53.240;6.572;2023-07-31T11:45:48;1.52;;;1.38;;
51854;SDS011;37895;53.240;6.572;2023-07-31T11:50:46;1.50;;;1.20;;
51854;SDS011;37895;53.240;6.572;2023-07-31T11:53:14;2.30;;;1.10;;
51854;SDS011;37895;53.240;6.572;2023-07-31T11:55:42;2.10;;;1.10;;
51854;SDS011;37895;53.240;6.572;2023-07-31T12:00:34;2.75;;;1.35;;
51854;SDS011;37895;53.240;6.572;2023-07-31T12:03:00;2.60;;;1.38;;
51854;SDS011;37895;53.240;6.572;2023-07-31T12:05:25;2.97;;;1.30;;
51854;SDS011;37895;53.240;6.572;2023-07-31T12:07:54;2.30;;;1.40;;
51854;SDS011;37895;53.240;6.572;2023-07-31T12:10:32;4.55;;;1.10;;
51854;SDS011;37895;53.240;6.572;2023-07-31T12:12:59;3.70;;;1.45;;
51854;SDS011;37895;53.240;6.572;2023-07-31T12:15:43;6.93;;;2.40;;
51854;SDS011;37895;53.240;6.572;2023-07-31T12:18:10;5.45;;;2.15;;
51854;SDS011;37895;53.240;6.572;2023-07-31T12:20:45;4.22;;;1.30;;
51854;SDS011;37895;53.240;6.572;2023-07-31T12:23:19;1.40;;;1.30;;
51854;SDS011;37895;53.240;6.572;2023-07-31T12:26:12;4.85;;;1.50;;
51854;SDS011;37895;53.240;6.572;2023-07-31T12:31:12;3.00;;;1.50;;
51854;SDS011;37895;53.240;6.572;2023-07-31T12:33:45;2.22;;;1.30;;
51854;SDS011;37895;53.240;6.572;2023-07-31T12:36:16;1.95;;;1.30;;
51854;SDS011;37895;53.240;6.572;2023-07-31T12:38:43;3.42;;;1.40;;
51854;SDS011;37895;53.240;6.572;2023-07-31T12:41:09;2.90;;;1.35;;
51854;SDS011;37895;53.240;6.572;2023-07-31T12:43:36;2.30;;;1.17;;
51854;SDS011;37895;53.240;6.572;2023-07-31T12:46:02;2.65;;;1.67;;
51854;SDS011;37895;53.240;6.572;2023-07-31T12:48:28;1.85;;;1.42;;
51854;SDS011;37895;53.240;6.572;2023-07-31T12:50:54;2.47;;;1.38;;
51854;SDS011;37895;53.240;6.572;2023-07-31T12:55:46;1.70;;;1.30;;
51854;SDS011;37895;53.240;6.572;2023-07-31T13:00:37;1.83;;;1.42;;
51854;SDS011;37895;53.240;6.572;2023-07-31T13:03:03;1.83;;;1.30;;
51854;SDS011;37895;53.240;6.572;2023-07-31T13:05:29;2.72;;;1.50;;
51854;SDS011;37895;53.240;6.572;2023-07-31T13:07:54;6.15;;;1.95;;
51854;SDS011;37895;53.240;6.572;2023-07-31T13:10:21;3.42;;;1.70;;
51854;SDS011;37895;53.240;6.572;2023-07-31T13:12:47;3.38;;;1.50;;
51854;SDS011;37895;53.240;6.572;2023-07-31T13:17:39;3.33;;;1.70;;
51854;SDS011;37895;53.240;6.572;2023-07-31T13:22:30;4.78;;;2.00;;
51854;SDS011;37895;53.240;6.572;2023-07-31T13:27:22;8.15;;;2.35;;
51854;SDS011;37895;53.240;6.572;2023-07-31T13:29:50;6.45;;;2.50;;
51854;SDS011;37895;53.240;6.572;2023-07-31T13:32:17;6.90;;;2.67;;
51854;SDS011;37895;53.240;6.572;2023-07-31T13:34:44;6.68;;;2.50;;
51854;SDS011;37895;53.240;6.572;2023-07-31T13:37:10;7.65;;;2.47;;
51854;SDS011;37895;53.240;6.572;2023-07-31T13:39:36;5.35;;;2.13;;
51854;SDS011;37895;53.240;6.572;2023-07-31T13:42:02;6.95;;;2.47;;
51854;SDS011;37895;53.240;6.572;2023-07-31T13:44:31;5.78;;;2.33;;
51854;SDS011;37895;53.240;6.572;2023-07-31T13:46:57;6.82;;;2.38;;
51854;SDS011;37895;53.240;6.572;2023-07-31T13:51:48;6.32;;;2.40;;
51854;SDS011;37895;53.240;6.572;2023-07-31T13:56:40;5.03;;;2.43;;
51854;SDS011;37895;53.240;6.572;2023-07-31T13:59:07;7.25;;;2.58;;
51854;SDS011;37895;53.240;6.572;2023-07-31T14:03:58;6.68;;;2.40;;
51854;SDS011;37895;53.240;6.572;2023-07-31T14:08:50;8.20;;;2.92;;
51854;SDS011;37895;53.240;6.572;2023-07-31T14:11:15;7.88;;;3.33;;
51854;SDS011;37895;53.240;6.572;2023-07-31T14:16:06;7.60;;;3.20;;
51854;SDS011;37895;53.240;6.572;2023-07-31T14:20:57;10.02;;;3.70;;
51854;SDS011;37895;53.240;6.572;2023-07-31T14:23:23;9.00;;;3.17;;
51854;SDS011;37895;53.240;6.572;2023-07-31T14:28:14;6.10;;;3.15;;
51854;SDS011;37895;53.240;6.572;2023-07-31T14:33:05;9.57;;;3.53;;
51854;SDS011;37895;53.240;6.572;2023-07-31T14:35:32;7.43;;;3.20;;
51854;SDS011;37895;53.240;6.572;2023-07-31T14:40:23;7.03;;;3.60;;
51854;SDS011;37895;53.240;6.572;2023-07-31T14:45:14;8.68;;;3.33;;
51854;SDS011;37895;53.240;6.572;2023-07-31T14:50:06;9.63;;;3.58;;
51854;SDS011;37895;53.240;6.572;2023-07-31T14:52:31;6.72;;;3.63;;
51854;SDS011;37895;53.240;6.572;2023-07-31T14:54:57;7.97;;;3.80;;
51854;SDS011;37895;53.240;6.572;2023-07-31T14:59:48;11.60;;;3.95;;
51854;SDS011;37895;53.240;6.572;2023-07-31T15:02:14;7.88;;;3.83;;
51854;SDS011;37895;53.240;6.572;2023-07-31T15:04:40;8.18;;;3.60;;
51854;SDS011;37895;53.240;6.572;2023-07-31T15:09:31;7.22;;;3.63;;
51854;SDS011;37895;53.240;6.572;2023-07-31T15:14:23;8.07;;;3.60;;
51854;SDS011;37895;53.240;6.572;2023-07-31T15:16:50;9.68;;;4.22;;
51854;SDS011;37895;53.240;6.572;2023-07-31T15:21:41;8.95;;;4.30;;
51854;SDS011;37895;53.240;6.572;2023-07-31T15:26:32;7.97;;;4.20;;
51854;SDS011;37895;53.240;6.572;2023-07-31T15:29:02;12.98;;;4.72;;
51854;SDS011;37895;53.240;6.572;2023-07-31T15:31:33;12.05;;;4.25;;
51854;SDS011;37895;53.240;6.572;2023-07-31T15:34:03;13.52;;;3.88;;
51854;SDS011;37895;53.240;6.572;2023-07-31T15:38:55;9.95;;;4.20;;
51854;SDS011;37895;53.240;6.572;2023-07-31T15:41:20;9.23;;;3.97;;
51854;SDS011;37895;53.240;6.572;2023-07-31T15:43:46;10.82;;;4.63;;
51854;SDS011;37895;53.240;6.572;2023-07-31T15:46:12;9.70;;;4.20;;
51854;SDS011;37895;53.240;6.572;2023-07-31T15:48:38;9.70;;;4.22;;
51854;SDS011;37895;53.240;6.572;2023-07-31T15:51:04;11.63;;;4.70;;
51854;SDS011;37895;53.240;6.572;2023-07-31T15:53:30;9.73;;;3.42;;
51854;SDS011;37895;53.240;6.572;2023-07-31T15:58:21;8.73;;;3.72;;
51854;SDS011;37895;53.240;6.572;2023-07-31T16:03:13;12.52;;;4.85;;
51854;SDS011;37895;53.240;6.572;2023-07-31T16:05:38;8.80;;;4.10;;
51854;SDS011;37895;53.240;6.572;2023-07-31T16:10:29;8.13;;;3.55;;
51854;SDS011;37895;53.240;6.572;2023-07-31T16:12:56;10.00;;;3.45;;
51854;SDS011;37895;53.240;6.572;2023-07-31T16:15:21;7.95;;;3.30;;
51854;SDS011;37895;53.240;6.572;2023-07-31T16:17:49;7.93;;;3.55;;
51854;SDS011;37895;53.240;6.572;2023-07-31T16:20:15;10.10;;;3.63;;
51854;SDS011;37895;53.240;6.572;2023-07-31T16:22:41;6.35;;;3.30;;
51854;SDS011;37895;53.240;6.572;2023-07-31T16:27:34;9.50;;;3.20;;
51854;SDS011;37895;53.240;6.572;2023-07-31T16:30:00;9.45;;;3.28;;
51854;SDS011;37895;53.240;6.572;2023-07-31T16:34:55;9.65;;;3.38;;
51854;SDS011;37895;53.240;6.572;2023-07-31T16:37:20;11.70;;;3.45;;
51854;SDS011;37895;53.240;6.572;2023-07-31T16:39:46;6.40;;;3.05;;